Bear Mountain Bridge — 3FBQ5 — position and weather

sailwx.info

Track history (hours):
 
Tides and Currents Weather Stations Pressure Air Temp Water Temp Dewpoint Dewpoint Depression Visibility Wind Speed Wind Dir Waves Ship Positions

Bear Mountain Bridge

Last reported at 2018-Feb-20 12:00 UTC. Time now 2018-Feb-20 12:07 UTC.
Position N 34°06' E 134°60'.

Length 267 m; draft 10.8 m.

Type: Cargo ship. MMSI: 354942000.

Date/timePositionNaut miles runAvg speedWind from/ knotsBaromVisibWave heightAir tempDewpointWater temp
2018-Feb-20 12:00N 34°06' E 134°60'1019.7
2018-Feb-20 11:31N 33°56' E 134°60'1020.4
2018-Feb-20 11:00N 33°47' E 135°05'13418.9
2018-Feb-20 03:56N 34°05' E 137°45'921.1
2018-Feb-20 03:30N 34°08' E 137°55'1020.9
2018-Feb-20 03:00N 34°12' E 138°07'1120.8
2018-Feb-20 02:29N 34°17' E 138°19'1020.3
2018-Feb-20 02:00N 34°21' E 138°29'1220.5
2018-Feb-20 01:26N 34°26' E 138°42'920.7
2018-Feb-20 01:00N 34°30' E 138°52'1221.2
2018-Feb-20 00:26N 34°37' E 139°04'1022.0
2018-Feb-19 23:59N 34°45' E 139°12'810.2
2018-Feb-19 23:12N 34°51' E 139°18'1 5.3
2018-Feb-19 23:00N 34°52' E 139°19'918.9
2018-Feb-19 22:30N 34°58' E 139°26'1121.0
2018-Feb-19 22:00N 35°03' E 139°38'919.1
2018-Feb-19 21:30N 35°10' E 139°45'611.8
2018-Feb-19 21:00N 35°16' E 139°45'611.5
2018-Feb-19 20:30N 35°21' E 139°42'713.3
2018-Feb-19 20:01N 35°27' E 139°47'713.6
2018-Feb-19 19:31N 35°33' E 139°50'5 9.6
2018-Feb-19 19:00N 35°36' E 139°46'0 0.4
2018-Feb-19 18:30N 35°37' E 139°46'0 0.0
2018-Feb-19 18:00N 35°37' E 139°46'0 0.0
2018-Feb-19 17:30N 35°37' E 139°46'0 0.0
2018-Feb-19 16:54N 35°37' E 139°46'0 0.0
2018-Feb-19 16:24N 35°37' E 139°46'0 0.0
2018-Feb-19 15:24N 35°37' E 139°46'0 0.0
2018-Feb-19 14:48N 35°37' E 139°46'0 0.0
2018-Feb-19 14:18N 35°37' E 139°46'0 0.0
2018-Feb-19 14:00N 35°37' E 139°46'0 0.0
2018-Feb-19 13:30N 35°37' E 139°46'0 0.0
2018-Feb-19 13:00N 35°37' E 139°46'0 0.0
2018-Feb-19 12:27N 35°37' E 139°46'0 0.0
2018-Feb-19 12:00N 35°37' E 139°46'0 0.0
2018-Feb-19 11:24N 35°37' E 139°46'0 0.0
2018-Feb-19 11:00N 35°37' E 139°46'0 0.0
2018-Feb-19 07:48N 35°37' E 139°46'0 0.0
2018-Feb-19 07:24N 35°37' E 139°46'0 0.0
2018-Feb-19 06:54N 35°37' E 139°46'0 0.0
2018-Feb-19 06:30N 35°37' E 139°46'0 0.0
2018-Feb-19 05:54N 35°37' E 139°46'0 0.0
2018-Feb-19 05:27N 35°37' E 139°46'0 0.0
2018-Feb-19 05:00N 35°37' E 139°46'0 0.0
2018-Feb-19 04:30N 35°37' E 139°46'3 6.5
2018-Feb-19 04:00N 35°34' E 139°49'613.0
2018-Feb-19 03:30N 35°28' E 139°51'714.5
2018-Feb-19 03:00N 35°22' E 139°45'611.9
2018-Feb-19 02:30N 35°16' E 139°46'612.4
2018-Feb-19 02:00N 35°10' E 139°47'4 7.5
2018-Feb-19 01:30N 35°07' E 139°46'1017.9
2018-Feb-19 00:55N 34°56' E 139°43'818.7
2018-Feb-19 00:30N 34°50' E 139°48'1419.9
2018-Feb-18 23:50N 34°39' E 139°57'  
Track history (hours):
 
Tides and Currents Weather Stations Pressure Air Temp Water Temp Dewpoint Dewpoint Depression Visibility Wind Speed Wind Dir Waves Ship Positions

Bear Mountain Bridge

Last reported at 2018-Feb-20 12:00 UTC. Time now 2018-Feb-20 12:07 UTC.
Position N 34°06' E 134°60'.

Length 267 m; draft 10.8 m.

Type: Cargo ship. MMSI: 354942000.

Date/timePositionNaut miles runAvg speedWind from/ knotsBaromVisibWave heightAir tempDewpointWater temp
2018-Feb-20 12:00N 34°06' E 134°60'1019.7
2018-Feb-20 11:31N 33°56' E 134°60'1020.4
2018-Feb-20 11:00N 33°47' E 135°05'13418.9
2018-Feb-20 03:56N 34°05' E 137°45'921.1
2018-Feb-20 03:30N 34°08' E 137°55'1020.9
2018-Feb-20 03:00N 34°12' E 138°07'1120.8
2018-Feb-20 02:29N 34°17' E 138°19'1020.3
2018-Feb-20 02:00N 34°21' E 138°29'1220.5
2018-Feb-20 01:26N 34°26' E 138°42'920.7
2018-Feb-20 01:00N 34°30' E 138°52'1221.2
2018-Feb-20 00:26N 34°37' E 139°04'1022.0
2018-Feb-19 23:59N 34°45' E 139°12'810.2
2018-Feb-19 23:12N 34°51' E 139°18'1 5.3
2018-Feb-19 23:00N 34°52' E 139°19'918.9
2018-Feb-19 22:30N 34°58' E 139°26'1121.0
2018-Feb-19 22:00N 35°03' E 139°38'919.1
2018-Feb-19 21:30N 35°10' E 139°45'611.8
2018-Feb-19 21:00N 35°16' E 139°45'611.5
2018-Feb-19 20:30N 35°21' E 139°42'713.3
2018-Feb-19 20:01N 35°27' E 139°47'713.6
2018-Feb-19 19:31N 35°33' E 139°50'5 9.6
2018-Feb-19 19:00N 35°36' E 139°46'0 0.4
2018-Feb-19 18:30N 35°37' E 139°46'0 0.0
2018-Feb-19 18:00N 35°37' E 139°46'0 0.0
2018-Feb-19 17:30N 35°37' E 139°46'0 0.0
2018-Feb-19 16:54N 35°37' E 139°46'0 0.0
2018-Feb-19 16:24N 35°37' E 139°46'0 0.0
2018-Feb-19 15:24N 35°37' E 139°46'0 0.0
2018-Feb-19 14:48N 35°37' E 139°46'0 0.0
2018-Feb-19 14:18N 35°37' E 139°46'0 0.0
2018-Feb-19 14:00N 35°37' E 139°46'0 0.0
2018-Feb-19 13:30N 35°37' E 139°46'0 0.0
2018-Feb-19 13:00N 35°37' E 139°46'0 0.0
2018-Feb-19 12:27N 35°37' E 139°46'0 0.0
2018-Feb-19 12:00N 35°37' E 139°46'0 0.0
2018-Feb-19 11:24N 35°37' E 139°46'0 0.0
2018-Feb-19 11:00N 35°37' E 139°46'0 0.0
2018-Feb-19 07:48N 35°37' E 139°46'0 0.0
2018-Feb-19 07:24N 35°37' E 139°46'0 0.0
2018-Feb-19 06:54N 35°37' E 139°46'0 0.0
2018-Feb-19 06:30N 35°37' E 139°46'0 0.0
2018-Feb-19 05:54N 35°37' E 139°46'0 0.0
2018-Feb-19 05:27N 35°37' E 139°46'0 0.0
2018-Feb-19 05:00N 35°37' E 139°46'0 0.0
2018-Feb-19 04:30N 35°37' E 139°46'3 6.5
2018-Feb-19 04:00N 35°34' E 139°49'613.0
2018-Feb-19 03:30N 35°28' E 139°51'714.5
2018-Feb-19 03:00N 35°22' E 139°45'611.9
2018-Feb-19 02:30N 35°16' E 139°46'612.4
2018-Feb-19 02:00N 35°10' E 139°47'4 7.5
2018-Feb-19 01:30N 35°07' E 139°46'1017.9
2018-Feb-19 00:55N 34°56' E 139°43'818.7
2018-Feb-19 00:30N 34°50' E 139°48'1419.9
2018-Feb-18 23:50N 34°39' E 139°57'  

Dump ship's entire track history